Time;durP1;ratioP1;P1;durP2;ratioP2;P2;SDS_P1;SDS_P2;PMS_P1;PMS_P2;Temp;Humidity;BMP_temperature;BMP_pressure;BME280_temperature;BME280_humidity;BME280_pressure;Samples;Min_cycle;Max_cycle;Signal;HPM_P1;HPM_P2
2022/12/29 00:01:38;;;;;;;1.63;0.50;;;;;;;;;;10431562;28;20047;-74
2022/12/29 00:06:51;;;;;;;1.50;0.95;;;;;;;;;;10436297;28;20111;-73
2022/12/29 00:11:53;;;;;;;2.33;0.50;;;;;;;;;;10426053;28;20045;-74
2022/12/29 00:16:56;;;;;;;2.38;1.27;;;;;;;;;;10431999;28;20053;-73
2022/12/29 00:54:08;;;;;;;0.77;0.70;;;;;;;;;;10432401;28;20037;-74
2022/12/29 00:59:11;;;;;;;1.90;0.82;;;;;;;;;;10437228;28;20104;-73
2022/12/29 01:04:14;;;;;;;0.80;0.50;;;;;;;;;;10432616;28;20052;-74
2022/12/29 01:14:38;;;;;;;1.85;0.98;;;;;;;;;;10428542;28;20398;-73
2022/12/29 01:19:51;;;;;;;0.55;0.35;;;;;;;;;;10428743;28;20041;-74
2022/12/29 01:24:55;;;;;;;2.22;0.98;;;;;;;;;;10424831;28;20405;-74
2022/12/29 01:29:57;;;;;;;0.98;0.50;;;;;;;;;;10428767;28;20123;-75
2022/12/29 01:35:00;;;;;;;1.35;0.80;;;;;;;;;;10431124;28;20046;-73
2022/12/29 01:40:05;;;;;;;1.75;0.82;;;;;;;;;;10435348;28;20491;-75
2022/12/29 01:45:10;;;;;;;0.98;0.63;;;;;;;;;;10434396;28;20041;-73
2022/12/29 01:50:12;;;;;;;;;;;;;;;;;;10436598;28;20264;-74
2022/12/29 01:55:16;;;;;;;3.05;0.90;;;;;;;;;;10429881;28;19971;-73
2022/12/29 02:00:19;;;;;;;2.35;0.40;;;;;;;;;;10427149;28;20485;-74
2022/12/29 02:05:26;;;;;;;0.68;0.63;;;;;;;;;;10435555;28;20167;-73
2022/12/29 02:10:32;;;;;;;1.40;0.90;;;;;;;;;;10426964;28;20120;-73
2022/12/29 02:15:38;;;;;;;0.90;0.50;;;;;;;;;;10435150;28;20124;-75
2022/12/29 02:20:58;;;;;;;0.65;0.65;;;;;;;;;;10439656;28;20059;-75
2022/12/29 02:26:25;;;;;;;1.23;0.75;;;;;;;;;;10440734;28;20052;-74
2022/12/29 02:31:32;;;;;;;1.35;0.88;;;;;;;;;;10416792;28;20130;-74
2022/12/29 02:36:41;;;;;;;0.50;0.45;;;;;;;;;;10440968;28;20139;-74
2022/12/29 02:41:49;;;;;;;1.27;0.80;;;;;;;;;;10425904;28;20118;-74
2022/12/29 02:46:55;;;;;;;3.40;0.75;;;;;;;;;;10435344;28;20037;-74
2022/12/29 02:52:00;;;;;;;0.88;0.47;;;;;;;;;;10429766;28;20458;-73
2022/12/29 02:57:09;;;;;;;1.13;0.73;;;;;;;;;;10424665;28;20037;-73
2022/12/29 03:02:23;;;;;;;1.75;0.45;;;;;;;;;;10432862;28;20501;-74
2022/12/29 03:07:31;;;;;;;0.67;0.43;;;;;;;;;;10427317;28;20049;-73
2022/12/29 03:18:06;;;;;;;0.80;0.63;;;;;;;;;;10423080;28;20033;-73
2022/12/29 03:23:09;;;;;;;1.60;0.68;;;;;;;;;;10432085;28;20043;-74
2022/12/29 03:28:13;;;;;;;1.23;0.35;;;;;;;;;;10436231;28;20045;-75
2022/12/29 03:33:18;;;;;;;1.33;0.37;;;;;;;;;;10431409;28;20090;-77
2022/12/29 03:38:24;;;;;;;1.70;0.70;;;;;;;;;;10430113;28;20034;-73
2022/12/29 03:43:26;;;;;;;1.85;0.75;;;;;;;;;;10420866;28;20470;-74
2022/12/29 03:48:32;;;;;;;1.15;0.80;;;;;;;;;;10426197;28;20095;-73
2022/12/29 03:53:36;;;;;;;0.70;0.43;;;;;;;;;;10434845;28;20045;-74
2022/12/29 03:58:38;;;;;;;0.80;0.68;;;;;;;;;;10433338;28;20033;-74
2022/12/29 04:03:42;;;;;;;0.55;0.43;;;;;;;;;;10429086;28;20049;-74
2022/12/29 04:08:45;;;;;;;1.83;0.60;;;;;;;;;;10428539;28;20429;-73
2022/12/29 04:13:48;;;;;;;0.63;0.60;;;;;;;;;;10424399;28;20368;-74
2022/12/29 04:18:52;;;;;;;1.42;0.60;;;;;;;;;;10423514;28;20128;-73
2022/12/29 04:23:54;;;;;;;0.38;0.28;;;;;;;;;;10428159;28;20045;-74
2022/12/29 04:28:57;;;;;;;1.35;0.70;;;;;;;;;;10426568;28;20095;-74
2022/12/29 04:34:01;;;;;;;1.58;0.70;;;;;;;;;;10438629;28;20058;-73
2022/12/29 04:39:05;;;;;;;0.80;0.45;;;;;;;;;;10426593;28;20037;-73
2022/12/29 04:44:07;;;;;;;1.00;0.30;;;;;;;;;;10429864;28;20506;-73
2022/12/29 04:49:11;;;;;;;0.57;0.45;;;;;;;;;;10433131;28;20040;-73
2022/12/29 04:54:15;;;;;;;1.00;0.75;;;;;;;;;;10433044;28;20056;-73
2022/12/29 04:59:18;;;;;;;0.52;0.38;;;;;;;;;;10425675;28;20398;-73
2022/12/29 05:04:22;;;;;;;0.50;0.30;;;;;;;;;;10419989;28;20056;-72
2022/12/29 05:09:24;;;;;;;0.50;0.50;;;;;;;;;;10428851;28;20033;-73
2022/12/29 05:14:27;;;;;;;0.77;0.45;;;;;;;;;;10434004;28;20133;-73
2022/12/29 05:19:31;;;;;;;0.45;0.40;;;;;;;;;;10426224;28;20103;-74
2022/12/29 05:24:33;;;;;;;0.40;0.40;;;;;;;;;;10427492;28;20033;-73
2022/12/29 05:29:36;;;;;;;0.90;0.60;;;;;;;;;;10437318;28;20045;-75
2022/12/29 05:34:40;;;;;;;1.70;0.50;;;;;;;;;;10429900;28;20096;-74
2022/12/29 05:39:43;;;;;;;0.95;0.60;;;;;;;;;;10430821;28;20033;-74
2022/12/29 05:44:45;;;;;;;2.00;0.82;;;;;;;;;;10425128;28;20045;-74
2022/12/29 05:49:49;;;;;;;0.57;0.43;;;;;;;;;;10440482;28;20041;-73
2022/12/29 05:54:52;;;;;;;0.55;0.50;;;;;;;;;;10427005;28;20041;-74
2022/12/29 05:59:55;;;;;;;1.35;0.68;;;;;;;;;;10434743;28;20033;-75
2022/12/29 06:04:59;;;;;;;0.75;0.55;;;;;;;;;;10436979;28;20036;-73
2022/12/29 06:10:01;;;;;;;0.90;0.30;;;;;;;;;;10435836;28;20802;-73
2022/12/29 06:15:05;;;;;;;0.60;0.60;;;;;;;;;;10427235;28;20049;-73
2022/12/29 06:20:10;;;;;;;1.85;1.00;;;;;;;;;;10447414;28;20061;-74
2022/12/29 06:25:13;;;;;;;0.95;0.57;;;;;;;;;;10436666;28;20048;-74
2022/12/29 06:30:16;;;;;;;0.80;0.60;;;;;;;;;;10432381;28;20037;-75
2022/12/29 06:35:21;;;;;;;1.50;1.20;;;;;;;;;;10433254;28;20059;-74
2022/12/29 06:40:23;;;;;;;0.73;0.65;;;;;;;;;;10421483;28;20387;-74
2022/12/29 06:45:26;;;;;;;1.70;0.80;;;;;;;;;;10440056;28;20102;-75
2022/12/29 06:50:30;;;;;;;1.27;0.70;;;;;;;;;;10438492;28;20037;-72
2022/12/29 06:55:33;;;;;;;0.60;0.50;;;;;;;;;;10429153;28;20045;-76
2022/12/29 07:00:35;;;;;;;1.33;0.57;;;;;;;;;;10432721;28;20037;-75
2022/12/29 07:05:39;;;;;;;4.28;0.73;;;;;;;;;;10425818;28;20052;-74
2022/12/29 07:10:42;;;;;;;1.75;0.77;;;;;;;;;;10430796;28;20052;-75
2022/12/29 07:15:45;;;;;;;1.80;0.70;;;;;;;;;;10425655;28;20048;-74
2022/12/29 07:20:49;;;;;;;5.05;0.85;;;;;;;;;;10431557;28;20045;-73
2022/12/29 07:25:59;;;;;;;0.28;0.28;;;;;;;;;;10421356;28;20065;-75
2022/12/29 07:31:02;;;;;;;0.55;0.43;;;;;;;;;;10426555;28;20071;-75
2022/12/29 07:36:07;;;;;;;1.98;0.80;;;;;;;;;;10428985;28;20056;-75
2022/12/29 07:41:10;;;;;;;1.13;0.40;;;;;;;;;;10427270;28;20055;-75
2022/12/29 07:46:13;;;;;;;2.40;0.80;;;;;;;;;;10430895;28;20038;-75
2022/12/29 07:51:36;;;;;;;0.93;0.73;;;;;;;;;;10426581;28;20171;-74
2022/12/29 07:56:39;;;;;;;0.40;0.40;;;;;;;;;;10420944;28;20048;-73
2022/12/29 08:01:41;;;;;;;2.72;0.90;;;;;;;;;;10434163;28;20672;-74
2022/12/29 08:06:46;;;;;;;1.27;1.10;;;;;;;;;;10443482;28;20128;-75
2022/12/29 08:11:49;;;;;;;1.80;0.90;;;;;;;;;;10443808;28;20037;-75
2022/12/29 08:16:52;;;;;;;1.02;0.90;;;;;;;;;;10435867;28;20565;-74
2022/12/29 08:21:56;;;;;;;2.85;1.20;;;;;;;;;;10427469;28;20090;-75
2022/12/29 08:26:58;;;;;;;2.38;0.88;;;;;;;;;;10429987;28;20052;-74
2022/12/29 08:32:10;;;;;;;4.35;1.30;;;;;;;;;;10423419;28;20037;-74
2022/12/29 08:37:14;;;;;;;1.33;0.88;;;;;;;;;;10430848;28;20040;-74
2022/12/29 08:42:17;;;;;;;2.97;1.13;;;;;;;;;;10427579;28;20489;-74
2022/12/29 08:47:19;;;;;;;0.88;0.80;;;;;;;;;;10431022;28;20264;-74
2022/12/29 08:52:23;;;;;;;2.13;1.13;;;;;;;;;;10431001;28;20036;-74
2022/12/29 08:57:26;;;;;;;1.90;1.15;;;;;;;;;;10445680;28;20102;-75
2022/12/29 09:02:28;;;;;;;0.50;0.50;;;;;;;;;;10422681;28;20076;-75
2022/12/29 09:07:32;;;;;;;2.10;1.35;;;;;;;;;;10428631;28;20037;-74
2022/12/29 09:12:35;;;;;;;;;;;;;;;;;;10432433;28;20064;-74
2022/12/29 09:17:45;;;;;;;1.00;0.90;;;;;;;;;;10430295;28;19932;-75
2022/12/29 09:22:49;;;;;;;3.20;1.05;;;;;;;;;;10420984;28;20483;-74
2022/12/29 09:27:52;;;;;;;1.02;0.70;;;;;;;;;;10432271;28;20123;-74
2022/12/29 09:32:55;;;;;;;1.02;0.80;;;;;;;;;;10430111;28;20044;-74
2022/12/29 09:37:59;;;;;;;1.40;1.30;;;;;;;;;;10432953;28;20098;-74
2022/12/29 09:43:01;;;;;;;;;;;;;;;;;;10429817;28;20029;-75
2022/12/29 09:48:04;;;;;;;1.85;1.15;;;;;;;;;;10425931;28;20386;-74
2022/12/29 09:53:15;;;;;;;1.08;0.90;;;;;;;;;;10430845;28;20166;-74
2022/12/29 09:58:22;;;;;;;1.58;1.00;;;;;;;;;;10440402;28;20067;-74
2022/12/29 10:03:27;;;;;;;0.47;0.40;;;;;;;;;;10438033;28;20476;-74
2022/12/29 10:08:35;;;;;;;1.00;0.90;;;;;;;;;;10428464;28;20033;-75
2022/12/29 10:13:48;;;;;;;1.02;0.88;;;;;;;;;;10439717;28;20443;-74
2022/12/29 10:18:56;;;;;;;1.13;1.02;;;;;;;;;;10434619;28;20045;-75
2022/12/29 10:24:03;;;;;;;1.00;0.73;;;;;;;;;;10428106;28;20174;-74
2022/12/29 10:29:07;;;;;;;0.65;0.63;;;;;;;;;;10431443;28;20048;-73
2022/12/29 10:34:18;;;;;;;1.90;1.00;;;;;;;;;;10449114;28;20045;-75
2022/12/29 10:39:24;;;;;;;2.33;0.93;;;;;;;;;;10433399;28;20047;-74
2022/12/29 10:44:30;;;;;;;1.08;0.95;;;;;;;;;;10428609;28;20041;-74
2022/12/29 10:49:38;;;;;;;1.65;1.05;;;;;;;;;;10417329;28;20041;-74
2022/12/29 10:54:45;;;;;;;1.50;1.13;;;;;;;;;;10430319;28;20047;-74
2022/12/29 10:59:47;;;;;;;2.33;1.20;;;;;;;;;;10430218;28;20053;-75
2022/12/29 11:04:54;;;;;;;1.73;1.27;;;;;;;;;;10440035;28;20397;-74
2022/12/29 11:10:16;;;;;;;1.08;1.02;;;;;;;;;;10433643;28;20090;-75
2022/12/29 11:15:25;;;;;;;1.63;1.27;;;;;;;;;;10421915;28;20142;-75
2022/12/29 11:20:29;;;;;;;2.57;1.43;;;;;;;;;;10421585;28;20739;-77
2022/12/29 11:25:33;;;;;;;3.63;1.70;;;;;;;;;;10426564;28;20813;-76
2022/12/29 11:30:36;;;;;;;2.83;1.83;;;;;;;;;;10433099;28;20153;-75
2022/12/29 11:35:41;;;;;;;2.25;1.10;;;;;;;;;;10433900;28;20060;-74
2022/12/29 11:40:45;;;;;;;1.52;1.33;;;;;;;;;;10429297;28;20128;-75
2022/12/29 11:45:48;;;;;;;2.40;1.38;;;;;;;;;;10416826;28;20045;-74
2022/12/29 11:50:52;;;;;;;3.53;0.85;;;;;;;;;;10422682;28;20033;-74
2022/12/29 11:55:58;;;;;;;1.45;1.30;;;;;;;;;;10429953;28;20124;-75
2022/12/29 12:01:02;;;;;;;3.58;1.30;;;;;;;;;;10431504;28;20045;-74
2022/12/29 12:06:07;;;;;;;2.47;1.45;;;;;;;;;;10423508;28;20033;-74
2022/12/29 12:11:12;;;;;;;2.67;1.50;;;;;;;;;;10424233;28;20289;-74
2022/12/29 12:16:15;;;;;;;2.53;1.60;;;;;;;;;;10422322;28;20045;-74
2022/12/29 12:21:24;;;;;;;1.00;0.80;;;;;;;;;;10426359;28;20517;-75
2022/12/29 12:26:33;;;;;;;1.23;0.70;;;;;;;;;;10438259;28;20041;-75
2022/12/29 12:31:42;;;;;;;2.53;1.67;;;;;;;;;;10436163;28;20041;-73
2022/12/29 12:36:51;;;;;;;1.60;1.50;;;;;;;;;;10432260;28;20041;-75
2022/12/29 12:42:05;;;;;;;9.82;2.33;;;;;;;;;;10431499;28;20040;-73
2022/12/29 12:47:24;;;;;;;6.22;1.25;;;;;;;;;;10426332;28;20126;-74
2022/12/29 12:52:31;;;;;;;3.58;1.23;;;;;;;;;;10428600;28;20045;-73
2022/12/29 12:57:41;;;;;;;0.50;0.50;;;;;;;;;;10428936;28;20491;-75
2022/12/29 13:02:54;;;;;;;0.75;0.65;;;;;;;;;;10429701;28;20033;-75
2022/12/29 13:08:23;;;;;;;1.02;0.43;;;;;;;;;;10426485;28;20059;-75
2022/12/29 13:13:37;;;;;;;1.13;0.70;;;;;;;;;;10408860;28;20057;-74
2022/12/29 13:18:39;;;;;;;;;;;;;;;;;;10432802;28;20049;-74
2022/12/29 13:23:47;;;;;;;0.60;0.60;;;;;;;;;;10423428;28;19921;-74
2022/12/29 13:28:54;;;;;;;4.68;0.85;;;;;;;;;;10432969;28;20088;-74
2022/12/29 13:34:00;;;;;;;0.73;0.50;;;;;;;;;;10435155;28;20040;-73
2022/12/29 13:39:05;;;;;;;1.95;0.95;;;;;;;;;;10430067;28;20033;-75
2022/12/29 13:44:12;;;;;;;0.95;0.50;;;;;;;;;;10436713;28;20085;-75
2022/12/29 13:49:16;;;;;;;2.22;0.60;;;;;;;;;;10425250;28;20068;-74
2022/12/29 13:54:25;;;;;;;1.02;0.73;;;;;;;;;;10441090;28;20041;-75
2022/12/29 13:59:40;;;;;;;1.33;0.80;;;;;;;;;;10426090;28;20041;-74
2022/12/29 14:04:56;;;;;;;1.58;0.85;;;;;;;;;;10433267;28;20121;-75
2022/12/29 14:09:58;;;;;;;0.77;0.43;;;;;;;;;;10430158;28;20029;-75
2022/12/29 14:15:07;;;;;;;2.42;1.10;;;;;;;;;;10428683;28;20075;-75
2022/12/29 14:20:19;;;;;;;2.08;0.93;;;;;;;;;;10427420;28;20044;-74
2022/12/29 14:25:36;;;;;;;0.93;0.70;;;;;;;;;;10426987;28;20045;-75
2022/12/29 14:30:48;;;;;;;2.00;1.05;;;;;;;;;;10429768;28;20081;-75
2022/12/29 14:35:52;;;;;;;2.28;0.85;;;;;;;;;;10433692;28;20072;-76
2022/12/29 14:41:19;;;;;;;1.67;0.90;;;;;;;;;;10436053;28;20061;-76
2022/12/29 14:46:24;;;;;;;2.10;0.80;;;;;;;;;;10431728;28;20057;-75
2022/12/29 14:51:26;;;;;;;;;;;;;;;;;;10437327;28;20514;-76
2022/12/29 14:56:31;;;;;;;1.55;0.80;;;;;;;;;;10431112;28;19927;-75
2022/12/29 15:01:39;;;;;;;3.17;1.17;;;;;;;;;;10433256;28;20291;-75
2022/12/29 15:06:44;;;;;;;2.53;1.25;;;;;;;;;;10433893;28;20228;-75
2022/12/29 15:11:49;;;;;;;4.18;1.80;;;;;;;;;;10430178;28;20044;-76
2022/12/29 15:16:53;;;;;;;1.38;0.90;;;;;;;;;;10434024;28;20504;-75
2022/12/29 15:21:56;;;;;;;4.53;1.85;;;;;;;;;;10425393;28;20033;-76
2022/12/29 15:27:03;;;;;;;2.17;1.20;;;;;;;;;;10432144;28;20048;-75
2022/12/29 15:32:21;;;;;;;3.08;1.05;;;;;;;;;;10431277;28;20053;-74
2022/12/29 15:37:25;;;;;;;6.88;2.13;;;;;;;;;;10432405;28;20041;-75
2022/12/29 15:42:50;;;;;;;5.80;1.92;;;;;;;;;;10430300;28;20481;-75
2022/12/29 15:47:55;;;;;;;3.25;1.58;;;;;;;;;;10427033;28;20107;-75
2022/12/29 15:52:58;;;;;;;2.72;1.65;;;;;;;;;;10423217;28;20090;-74
2022/12/29 15:58:02;;;;;;;4.03;1.80;;;;;;;;;;10418521;28;20103;-73
2022/12/29 16:03:07;;;;;;;4.00;1.23;;;;;;;;;;10420829;28;20103;-75
2022/12/29 16:08:22;;;;;;;3.92;2.17;;;;;;;;;;10425015;28;20254;-75
2022/12/29 16:13:26;;;;;;;4.30;2.45;;;;;;;;;;10422145;28;20045;-74
2022/12/29 16:18:28;;;;;;;;;;;;;;;;;;10426423;28;20541;-74
2022/12/29 16:23:33;;;;;;;5.50;1.80;;;;;;;;;;10425096;28;19928;-76
2022/12/29 16:28:41;;;;;;;2.33;1.40;;;;;;;;;;10426686;28;20037;-75
2022/12/29 16:33:46;;;;;;;6.28;2.08;;;;;;;;;;10424063;28;20029;-75
2022/12/29 16:38:51;;;;;;;5.55;1.80;;;;;;;;;;10420625;28;20121;-74
2022/12/29 16:44:09;;;;;;;5.47;1.65;;;;;;;;;;10422659;28;20139;-74
2022/12/29 16:49:16;;;;;;;1.55;0.90;;;;;;;;;;10425139;28;20061;-75
2022/12/29 16:54:31;;;;;;;3.67;1.67;;;;;;;;;;10423848;28;20164;-76
2022/12/29 16:59:35;;;;;;;2.83;1.67;;;;;;;;;;10424656;28;20072;-75
2022/12/29 17:04:37;;;;;;;2.85;1.25;;;;;;;;;;10436139;28;20461;-76
2022/12/29 17:09:41;;;;;;;4.22;1.77;;;;;;;;;;10439423;28;20061;-75
2022/12/29 17:14:45;;;;;;;4.45;1.40;;;;;;;;;;10435450;28;20044;-75
2022/12/29 17:19:49;;;;;;;5.68;1.65;;;;;;;;;;10430302;28;20049;-75
2022/12/29 17:24:52;;;;;;;;;;;;;;;;;;10448849;28;20059;-76
2022/12/29 17:29:58;;;;;;;2.50;1.50;;;;;;;;;;10436203;28;19959;-76
2022/12/29 17:35:01;;;;;;;4.78;1.75;;;;;;;;;;10433876;28;20214;-75
2022/12/29 17:40:06;;;;;;;3.20;1.35;;;;;;;;;;10440308;28;20558;-75
2022/12/29 17:45:12;;;;;;;3.13;1.70;;;;;;;;;;10437942;28;20029;-75
2022/12/29 17:50:16;;;;;;;2.83;1.35;;;;;;;;;;10439559;28;20052;-75
2022/12/29 17:55:20;;;;;;;3.22;1.77;;;;;;;;;;10440735;28;20102;-75
2022/12/29 18:00:26;;;;;;;5.85;2.35;;;;;;;;;;10438430;28;20514;-75
2022/12/29 18:05:31;;;;;;;9.13;1.48;;;;;;;;;;10435123;28;20084;-75
2022/12/29 18:10:35;;;;;;;5.20;1.65;;;;;;;;;;10432876;28;20047;-75
2022/12/29 18:15:39;;;;;;;4.25;1.55;;;;;;;;;;10438459;28;20051;-74
2022/12/29 18:20:43;;;;;;;;;;;;;;;;;;10438394;28;20159;-75
2022/12/29 18:25:48;;;;;;;3.35;1.08;;;;;;;;;;10431792;28;19939;-75
2022/12/29 18:30:52;;;;;;;4.03;2.75;;;;;;;;;;10434046;28;20041;-74
2022/12/29 18:35:56;;;;;;;4.50;1.98;;;;;;;;;;10434968;28;20048;-75
2022/12/29 18:40:59;;;;;;;4.57;2.00;;;;;;;;;;10439331;28;20884;-76
2022/12/29 18:46:03;;;;;;;4.63;1.98;;;;;;;;;;10434154;28;20033;-77
2022/12/29 18:51:09;;;;;;;;;;;;;;;;;;10437657;28;20037;-75
2022/12/29 18:56:11;;;;;;;5.25;1.83;;;;;;;;;;10425924;28;20302;-75
2022/12/29 19:01:19;;;;;;;4.93;2.22;;;;;;;;;;10436089;28;20045;-74
2022/12/29 19:06:23;;;;;;;2.42;1.50;;;;;;;;;;10433468;28;20037;-74
2022/12/29 19:11:25;;;;;;;3.97;1.95;;;;;;;;;;10436396;28;20110;-74
2022/12/29 19:16:29;;;;;;;4.65;1.58;;;;;;;;;;10438283;28;20094;-75
2022/12/29 19:21:32;;;;;;;;;;;;;;;;;;10436544;28;20047;-75
2022/12/29 19:26:35;;;;;;;3.92;1.40;;;;;;;;;;10436887;28;19924;-74
2022/12/29 19:31:40;;;;;;;3.17;1.33;;;;;;;;;;10425057;28;20039;-75
2022/12/29 19:36:42;;;;;;;;;;;;;;;;;;10425284;28;20730;-73
2022/12/29 19:41:45;;;;;;;1.30;0.82;;;;;;;;;;10427959;28;20435;-75
2022/12/29 19:46:49;;;;;;;3.25;1.95;;;;;;;;;;10437696;28;20128;-75
2022/12/29 19:51:52;;;;;;;4.43;2.13;;;;;;;;;;10436674;28;20060;-76
2022/12/29 19:56:54;;;;;;;6.30;2.30;;;;;;;;;;10433687;28;20043;-75
2022/12/29 20:01:58;;;;;;;3.30;1.42;;;;;;;;;;10432972;28;20041;-75
2022/12/29 20:07:01;;;;;;;4.50;1.77;;;;;;;;;;10451300;28;20054;-75
2022/12/29 20:12:04;;;;;;;4.10;2.30;;;;;;;;;;10435811;28;20037;-75
2022/12/29 20:17:09;;;;;;;2.78;1.20;;;;;;;;;;10442987;28;20531;-76
2022/12/29 20:22:13;;;;;;;1.48;0.70;;;;;;;;;;10423372;28;20122;-75
2022/12/29 20:27:16;;;;;;;4.47;1.60;;;;;;;;;;10451663;28;22137;-75
2022/12/29 20:32:21;;;;;;;3.45;1.70;;;;;;;;;;10428798;28;20380;-76
2022/12/29 20:37:24;;;;;;;1.67;1.00;;;;;;;;;;10428360;28;20053;-74
2022/12/29 20:42:26;;;;;;;3.30;1.40;;;;;;;;;;10430297;28;20576;-74
2022/12/29 20:47:30;;;;;;;5.63;1.67;;;;;;;;;;10428144;28;20063;-76
2022/12/29 20:52:33;;;;;;;3.88;1.35;;;;;;;;;;10433559;28;20044;-76
2022/12/29 20:57:35;;;;;;;4.50;1.10;;;;;;;;;;10430125;28;20060;-75
2022/12/29 21:02:59;;;;;;;2.08;1.13;;;;;;;;;;10429682;28;20609;-77
2022/12/29 21:08:03;;;;;;;3.20;1.15;;;;;;;;;;10430447;28;20947;-75
2022/12/29 21:13:06;;;;;;;4.80;2.13;;;;;;;;;;10429700;28;20042;-74
2022/12/29 21:18:12;;;;;;;5.53;1.55;;;;;;;;;;10434745;28;20049;-74
2022/12/29 21:23:17;;;;;;;2.25;1.23;;;;;;;;;;10446408;28;20096;-76
2022/12/29 21:28:23;;;;;;;4.25;1.50;;;;;;;;;;10434239;28;20520;-75
2022/12/29 21:33:27;;;;;;;5.43;1.50;;;;;;;;;;10425703;28;20056;-74
2022/12/29 21:38:30;;;;;;;;;;;;;;;;;;10433266;28;20372;-74
2022/12/29 21:43:34;;;;;;;0.82;0.80;;;;;;;;;;10437914;28;19968;-74
2022/12/29 21:48:38;;;;;;;6.20;1.88;;;;;;;;;;10436410;28;20083;-74
2022/12/29 21:53:41;;;;;;;3.17;1.98;;;;;;;;;;10436018;28;20041;-74
2022/12/29 22:14:48;;;;;;;3.97;1.80;;;;;;;;;;10432397;28;20043;-79
2022/12/29 22:19:52;;;;;;;5.40;2.58;;;;;;;;;;10434234;28;20442;-75
2022/12/29 22:24:55;;;;;;;3.63;1.83;;;;;;;;;;10435572;28;20041;-77
2022/12/29 22:29:58;;;;;;;7.25;2.22;;;;;;;;;;10438655;28;20056;-76
2022/12/29 22:35:02;;;;;;;4.63;1.90;;;;;;;;;;10436619;28;20033;-76
2022/12/29 22:40:10;;;;;;;6.10;2.10;;;;;;;;;;10432917;28;20041;-76
2022/12/29 22:45:13;;;;;;;5.60;2.30;;;;;;;;;;10436473;28;20513;-75
2022/12/29 22:50:18;;;;;;;6.03;1.90;;;;;;;;;;10435201;28;20037;-76
2022/12/29 22:55:20;;;;;;;4.03;1.67;;;;;;;;;;10428132;28;20041;-76
2022/12/29 23:00:23;;;;;;;4.63;2.08;;;;;;;;;;10437026;28;20089;-74
2022/12/29 23:05:27;;;;;;;4.60;1.80;;;;;;;;;;10435745;28;20048;-75
2022/12/29 23:10:30;;;;;;;5.50;2.17;;;;;;;;;;10433666;28;20102;-76
2022/12/29 23:15:34;;;;;;;5.18;1.90;;;;;;;;;;10439529;28;20057;-76
2022/12/29 23:20:39;;;;;;;3.40;1.40;;;;;;;;;;10433764;28;20048;-78
2022/12/29 23:25:43;;;;;;;4.60;1.35;;;;;;;;;;10431246;28;20052;-75
2022/12/29 23:35:58;;;;;;;3.13;1.13;;;;;;;;;;10434557;28;20053;-77
2022/12/29 23:41:00;;;;;;;;;;;;;;;;;;10425936;28;20510;-76
2022/12/29 23:46:07;;;;;;;1.40;0.80;;;;;;;;;;10431709;28;19924;-75
2022/12/29 23:51:11;;;;;;;3.63;1.30;;;;;;;;;;10432844;28;20087;-75
2022/12/29 23:56:15;;;;;;;3.03;1.17;;;;;;;;;;10432816;28;20139;-76
